FCBB/BZV METAR and TAF weather

Enter ICAO airport designator
Station Type Date Time Source
FCBB METAR 2019/10/21 23:00 UTC NOAA

FCBB 212300Z 21005KT 9000 -TSRA FEW010 SCT020 SCT030CB 24/23 Q1012 NOSIG


Station Type Date Time Source
FCBB Decoded METAR 2019/10/21 23:00 UTC NOAA

Brazzaville / Maya-Maya, Congo, Republic of the (FCBB) 04-15S 015-15E 316M
Oct 21, 2019 - 07:00 PM EDT / 2019.10.21 2300 UTC
Wind: from the SSW (210 degrees) at 6 MPH (5 KT):0
Visibility: 5 mile(s):0
Sky conditions: partly cloudy
Weather: light rain with thunder; Cumulonimbus clouds observed
Temperature: 75 F (24 C)
Dew Point: 73 F (23 C)
Relative Humidity: 94%
Pressure (altimeter): 29.88 in. Hg (1012 hPa)
ob: FCBB 212300Z 21005KT 9000 -TSRA FEW010 SCT020 SCT030CB 24/23 Q1012 NOSIG
cycle: 23

Station Type Date Time Source
FCBB TAF 2019/10/21 18:06 UTC NOAA

TAF TAF FCBB 211700Z 2118/2224 23004KT 9000 TS SCT013 SCT023 FEW026CB
BECMG 2119/2122 NSW SCT012 SCT022
BECMG 2209/2213 SCT013 SCT023 FEW030CB
TEMPO 2216/2222 TS

Example: see airport list